createdAt,value
2018-02-07T00:01:19.136Z,43.10
2018-02-07T00:03:47.554Z,38.97
2018-02-07T00:06:15.877Z,40.97
2018-02-07T00:08:43.393Z,39.40
2018-02-07T00:11:17.857Z,39.40
2018-02-07T00:13:45.380Z,39.07
2018-02-07T00:16:13.328Z,44.10
2018-02-07T00:18:40.848Z,40.83
2018-02-07T00:21:08.387Z,40.60
2018-02-07T00:23:36.331Z,38.83
2018-02-07T00:26:03.981Z,45.50
2018-02-07T00:28:31.513Z,41.70
2018-02-07T00:30:59.820Z,41.10
2018-02-07T00:33:27.343Z,40.57
2018-02-07T00:35:55.659Z,44.47
2018-02-07T00:38:23.400Z,41.13
2018-02-07T00:40:50.977Z,41.37
2018-02-07T00:43:19.332Z,42.33
2018-02-07T00:45:46.848Z,43.77
2018-02-07T00:48:14.684Z,40.13
2018-02-07T00:50:42.415Z,48.43
2018-02-07T00:53:09.936Z,52.07
2018-02-07T00:55:38.808Z,47.70
2018-02-07T00:58:06.342Z,42.67
2018-02-07T01:00:33.899Z,51.70
2018-02-07T01:03:01.439Z,57.97
2018-02-07T01:05:28.959Z,47.87
2018-02-07T01:07:57.298Z,46.07
2018-02-07T01:10:24.849Z,46.13
2018-02-07T01:12:52.825Z,50.07
2018-02-07T01:15:20.667Z,42.77
2018-02-07T01:17:50.815Z,49.27
2018-02-07T01:20:18.359Z,47.00
2018-02-07T01:22:45.919Z,43.20
2018-02-07T01:25:13.482Z,47.10
2018-02-07T01:27:41.041Z,49.53
2018-02-07T01:30:08.752Z,49.20
2018-02-07T01:32:37.035Z,50.10
2018-02-07T01:35:05.322Z,49.03
2018-02-07T01:37:33.812Z,52.33
2018-02-07T01:40:01.664Z,50.13
2018-02-07T01:42:30.505Z,44.37
2018-02-07T01:44:58.028Z,46.10
2018-02-07T01:47:25.869Z,50.57
2018-02-07T01:49:54.597Z,50.60
2018-02-07T01:52:22.150Z,54.40
2018-02-07T01:54:49.664Z,49.60
2018-02-07T01:57:17.955Z,52.50
2018-02-07T01:59:46.265Z,49.50
2018-02-07T02:02:13.787Z,46.27
2018-02-07T02:04:42.073Z,46.53
2018-02-07T02:07:12.772Z,47.53
2018-02-07T02:09:41.379Z,50.67
2018-02-07T02:12:09.667Z,51.77
2018-02-07T02:14:37.602Z,50.50
2018-02-07T02:17:05.124Z,45.27
2018-02-07T02:19:32.657Z,53.07
2018-02-07T02:22:00.197Z,51.03
2018-02-07T02:24:29.040Z,55.33
2018-02-07T02:26:56.560Z,50.03
2018-02-07T02:29:24.771Z,55.40
2018-02-07T02:31:52.845Z,54.33
2018-02-07T02:34:20.914Z,53.10
2018-02-07T02:36:48.440Z,56.47
2018-02-07T02:39:15.969Z,57.57
2018-02-07T02:41:44.483Z,53.97
2018-02-07T02:44:12.027Z,50.40
2018-02-07T02:46:39.549Z,53.87
2018-02-07T02:49:07.849Z,50.97
2018-02-07T02:51:36.131Z,63.23
2018-02-07T02:54:03.661Z,52.90
2018-02-07T02:56:31.182Z,55.53
2018-02-07T02:58:58.734Z,46.23
2018-02-07T03:01:26.276Z,50.50
2018-02-07T03:03:54.820Z,45.90
2018-02-07T03:06:24.656Z,56.63
2018-02-07T03:08:52.956Z,51.47
2018-02-07T03:11:20.910Z,52.97
2018-02-07T03:13:48.427Z,53.60
2018-02-07T03:16:16.707Z,56.93
2018-02-07T03:18:44.709Z,56.47
2018-02-07T03:21:12.458Z,53.97
2018-02-07T03:23:40.765Z,58.47
2018-02-07T03:26:08.629Z,56.17
2018-02-07T03:28:36.171Z,53.03
2018-02-07T03:31:03.745Z,55.17
2018-02-07T03:33:31.268Z,55.50
2018-02-07T03:35:59.579Z,54.63
2018-02-07T03:38:27.832Z,57.80
2018-02-07T03:40:56.125Z,64.07
2018-02-07T03:43:23.653Z,56.30
2018-02-07T03:45:52.628Z,56.07
2018-02-07T03:48:20.155Z,60.37
2018-02-07T03:50:47.672Z,61.43
2018-02-07T03:53:15.979Z,56.90
2018-02-07T03:55:43.541Z,56.93
2018-02-07T03:58:11.072Z,54.57
2018-02-07T04:00:39.033Z,52.73
2018-02-07T04:03:07.321Z,48.00
2018-02-07T04:05:34.852Z,46.17
2018-02-07T04:08:03.151Z,52.63
2018-02-07T04:10:30.732Z,55.93
2018-02-07T04:12:59.576Z,51.93
2018-02-07T04:15:28.507Z,62.00
2018-02-07T04:17:56.028Z,52.23
2018-02-07T04:20:24.337Z,59.27
2018-02-07T04:22:51.876Z,56.83
2018-02-07T04:25:20.599Z,55.87
2018-02-07T04:27:48.116Z,61.47
2018-02-07T04:30:16.415Z,56.43
2018-02-07T04:32:44.241Z,61.00
2018-02-07T04:35:12.716Z,65.10
2018-02-07T04:37:41.016Z,62.50
2018-02-07T04:40:09.644Z,53.23
2018-02-07T04:42:37.355Z,59.73
2018-02-07T04:45:05.643Z,66.27
2018-02-07T04:47:33.164Z,54.40
2018-02-07T04:50:01.082Z,63.23
2018-02-07T04:52:28.644Z,54.23
2018-02-07T04:54:56.159Z,58.70
2018-02-07T04:57:24.462Z,59.50
2018-02-07T04:59:52.396Z,61.43
2018-02-07T05:02:19.933Z,67.03
2018-02-07T05:04:47.453Z,61.67
2018-02-07T05:07:14.971Z,72.80
2018-02-07T05:09:42.921Z,64.57
2018-02-07T05:12:10.445Z,70.60
2018-02-07T05:14:38.289Z,68.30
2018-02-07T05:17:06.231Z,69.93
2018-02-07T05:19:34.524Z,70.53
2018-02-07T05:22:02.825Z,74.37
2018-02-07T05:24:30.350Z,73.10
2018-02-07T05:26:59.070Z,83.77
2018-02-07T05:29:26.592Z,73.73
2018-02-07T05:31:54.879Z,74.60
2018-02-07T05:34:23.281Z,67.13
2018-02-07T05:36:51.147Z,79.87
2018-02-07T05:39:18.698Z,71.77
2018-02-07T05:41:46.267Z,76.60
2018-02-07T05:44:13.788Z,61.23
2018-02-07T05:46:42.080Z,68.10
2018-02-07T05:49:09.657Z,60.13
2018-02-07T05:51:37.215Z,77.00
2018-02-07T05:54:04.731Z,76.73
2018-02-07T05:56:33.025Z,73.93
2018-02-07T05:59:01.312Z,82.87
2018-02-07T06:01:28.835Z,75.27
2018-02-07T06:03:56.673Z,82.47
2018-02-07T06:06:24.194Z,72.53
2018-02-07T06:08:51.768Z,75.57
2018-02-07T06:11:19.300Z,88.40
2018-02-07T06:13:47.579Z,82.20
2018-02-07T06:16:15.104Z,79.80
2018-02-07T06:18:43.829Z,82.87
2018-02-07T06:21:11.346Z,79.00
2018-02-07T06:23:39.643Z,86.27
2018-02-07T06:26:08.053Z,78.07
2018-02-07T06:28:35.925Z,85.53
2018-02-07T06:31:04.181Z,83.70
2018-02-07T06:33:31.752Z,85.13
2018-02-07T06:35:59.269Z,91.60
2018-02-07T06:38:27.587Z,76.83
2018-02-07T06:40:55.131Z,75.30
2018-02-07T06:43:22.651Z,71.37
2018-02-07T06:45:50.362Z,69.80
2018-02-07T06:48:17.928Z,73.33
2018-02-07T06:50:45.468Z,78.73
2018-02-07T06:53:13.230Z,90.80
2018-02-07T06:55:40.754Z,88.83
2018-02-07T06:58:08.281Z,82.87
2018-02-07T07:00:35.818Z,89.07
2018-02-07T07:03:03.348Z,98.00
2018-02-07T07:05:31.652Z,91.67
2018-02-07T07:07:59.927Z,97.33
2018-02-07T07:10:27.840Z,100.40
2018-02-07T07:12:55.357Z,109.30
2018-02-07T07:15:23.120Z,112.40
2018-02-07T07:17:50.646Z,96.37
2018-02-07T07:20:19.041Z,100.67
2018-02-07T07:22:47.422Z,104.03
2018-02-07T07:25:14.944Z,102.37
2018-02-07T07:27:43.976Z,94.57
2018-02-07T07:30:11.496Z,79.80
2018-02-07T07:32:39.404Z,87.37
2018-02-07T07:35:06.969Z,85.93
2018-02-07T07:37:34.797Z,78.30
2018-02-07T07:40:03.092Z,75.67
2018-02-07T07:42:30.612Z,68.07
2018-02-07T07:44:58.914Z,68.67
2018-02-07T07:47:27.206Z,66.97
2018-02-07T07:49:56.133Z,62.67
2018-02-07T07:52:23.876Z,56.97
2018-02-07T07:54:51.592Z,59.33
2018-02-07T07:57:20.289Z,54.63
2018-02-07T07:59:48.688Z,56.83
2018-02-07T08:02:16.625Z,59.00
2018-02-07T08:04:45.108Z,54.03
2018-02-07T08:07:13.396Z,55.47
2018-02-07T08:09:42.131Z,51.43
2018-02-07T08:12:09.666Z,57.80
2018-02-07T08:14:37.225Z,55.40
2018-02-07T08:17:04.777Z,49.83
2018-02-07T08:19:32.315Z,55.93
2018-02-07T08:22:00.592Z,52.43
2018-02-07T08:24:28.196Z,51.13
2018-02-07T08:26:55.896Z,53.17
2018-02-07T08:29:24.195Z,48.43
2018-02-07T08:31:52.150Z,47.93
2018-02-07T08:34:20.428Z,48.47
2018-02-07T08:36:48.948Z,55.57
2018-02-07T08:39:16.465Z,50.23
2018-02-07T08:41:44.750Z,51.90
2018-02-07T08:44:12.329Z,50.07
2018-02-07T08:46:39.847Z,50.00
2018-02-07T08:49:08.137Z,51.27
2018-02-07T08:51:36.555Z,53.57
2018-02-07T08:54:04.095Z,48.70
2018-02-07T08:56:31.627Z,48.87
2018-02-07T08:58:59.903Z,47.03
2018-02-07T09:01:28.180Z,52.73
2018-02-07T09:03:56.907Z,53.73
2018-02-07T09:06:25.100Z,50.37
2018-02-07T09:08:53.354Z,49.00
2018-02-07T09:11:27.399Z,49.17
2018-02-07T09:13:55.010Z,49.97
2018-02-07T09:16:22.764Z,47.17
2018-02-07T09:18:50.331Z,50.57
2018-02-07T09:21:17.892Z,51.53
2018-02-07T09:23:45.843Z,52.10
2018-02-07T09:26:13.360Z,50.43
2018-02-07T09:28:40.891Z,49.07
2018-02-07T09:31:08.432Z,48.50
2018-02-07T09:33:35.951Z,47.47
2018-02-07T09:36:04.570Z,49.37
2018-02-07T09:38:32.097Z,46.47
2018-02-07T09:41:00.376Z,48.73
2018-02-07T09:43:28.783Z,46.43
2018-02-07T09:45:57.062Z,49.90
2018-02-07T09:48:24.800Z,50.43
2018-02-07T09:50:53.095Z,44.03
2018-02-07T09:53:20.616Z,52.77
2018-02-07T09:55:48.900Z,46.77
2018-02-07T10:00:51.419Z,44.13
2018-02-07T10:03:18.954Z,43.37
2018-02-07T10:05:47.243Z,46.73
2018-02-07T10:08:14.815Z,44.30
2018-02-07T10:10:42.621Z,47.50
2018-02-07T10:13:10.556Z,49.97
2018-02-07T10:15:38.079Z,43.30
2018-02-07T10:18:06.800Z,43.13
2018-02-07T10:20:34.360Z,47.10
2018-02-07T10:23:01.880Z,44.93
2018-02-07T10:25:30.184Z,47.90
2018-02-07T10:27:57.745Z,47.63
2018-02-07T10:30:25.828Z,49.57
2018-02-07T10:32:53.539Z,54.60
2018-02-07T10:35:21.821Z,54.70
2018-02-07T10:37:50.546Z,74.57
2018-02-07T10:40:18.483Z,59.27
2018-02-07T10:42:46.063Z,48.57
2018-02-07T10:45:14.716Z,48.27
2018-02-07T10:47:42.993Z,49.13
2018-02-07T10:50:11.282Z,48.87
2018-02-07T10:52:40.412Z,44.20
2018-02-07T10:55:07.947Z,49.83
2018-02-07T10:57:35.564Z,45.63
2018-02-07T11:00:03.848Z,43.00
2018-02-07T11:02:32.677Z,50.67
2018-02-07T11:05:00.240Z,45.03
2018-02-07T11:07:28.013Z,48.60
2018-02-07T11:09:55.535Z,44.50
2018-02-07T11:12:23.111Z,45.03
2018-02-07T11:14:50.674Z,46.80
2018-02-07T11:17:18.815Z,52.83
2018-02-07T11:19:47.092Z,48.17
2018-02-07T11:22:15.947Z,43.33
2018-02-07T11:24:43.570Z,44.83
2018-02-07T11:27:11.496Z,44.33
2018-02-07T11:29:39.788Z,47.40
2018-02-07T11:32:08.067Z,44.17
2018-02-07T11:34:36.152Z,44.07
2018-02-07T11:37:03.681Z,41.93
2018-02-07T11:39:31.959Z,46.20
2018-02-07T11:42:00.666Z,46.27
2018-02-07T11:44:29.820Z,43.77
2018-02-07T11:46:58.116Z,46.30
2018-02-07T11:49:26.456Z,43.87
2018-02-07T11:51:54.728Z,43.50
2018-02-07T11:54:22.680Z,44.73
2018-02-07T11:56:50.227Z,46.03
2018-02-07T11:59:17.759Z,42.53
2018-02-07T12:01:46.050Z,44.47
2018-02-07T12:04:14.140Z,41.53
2018-02-07T12:06:41.670Z,41.50
2018-02-07T12:09:09.632Z,48.20
2018-02-07T12:11:38.629Z,42.83
2018-02-07T12:14:06.207Z,43.30
2018-02-07T12:16:33.721Z,43.80
2018-02-07T12:19:02.031Z,46.87
2018-02-07T12:21:29.908Z,42.47
2018-02-07T12:23:57.463Z,47.13
2018-02-07T12:26:24.972Z,50.97
2018-02-07T12:28:53.560Z,46.47
2018-02-07T12:31:21.395Z,45.83
2018-02-07T12:33:49.222Z,49.83
2018-02-07T12:36:16.796Z,45.00
2018-02-07T12:38:46.795Z,39.77
2018-02-07T12:41:14.396Z,43.30
2018-02-07T12:43:41.919Z,45.83
2018-02-07T12:46:09.429Z,44.57
2018-02-07T12:48:36.953Z,51.40
2018-02-07T12:51:04.473Z,46.20
2018-02-07T12:53:32.771Z,52.30
2018-02-07T12:56:01.212Z,44.83
2018-02-07T12:58:28.931Z,47.67
2018-02-07T13:00:57.524Z,48.97
2018-02-07T13:03:25.236Z,45.77
2018-02-07T13:05:53.952Z,47.63
2018-02-07T13:08:22.397Z,49.90
2018-02-07T13:10:50.728Z,48.33
2018-02-07T13:13:18.563Z,51.67
2018-02-07T13:15:46.084Z,49.37
2018-02-07T13:18:13.687Z,44.70
2018-02-07T13:20:47.762Z,47.10
2018-02-07T13:23:16.081Z,46.80
2018-02-07T13:25:43.603Z,45.63
2018-02-07T13:28:11.892Z,46.93
2018-02-07T13:30:39.404Z,46.20
2018-02-07T13:33:09.371Z,48.33
2018-02-07T13:35:40.222Z,45.53
2018-02-07T13:38:07.873Z,45.97
2018-02-07T13:40:35.391Z,43.03
2018-02-07T13:43:03.672Z,46.37
2018-02-07T13:45:31.989Z,46.53
2018-02-07T13:47:59.514Z,47.70
2018-02-07T13:50:28.317Z,44.87
2018-02-07T13:52:55.856Z,53.20
2018-02-07T13:55:24.344Z,50.03
2018-02-07T13:57:52.626Z,50.57
2018-02-07T14:00:21.079Z,51.73
2018-02-07T14:02:48.598Z,49.63
2018-02-07T14:05:16.124Z,48.67
2018-02-07T14:07:43.644Z,52.30
2018-02-07T14:10:11.882Z,52.73
2018-02-07T14:12:39.412Z,50.07
2018-02-07T14:15:07.482Z,50.83
2018-02-07T14:17:35.787Z,52.00
2018-02-07T14:20:03.317Z,48.80
2018-02-07T14:22:30.848Z,50.77
2018-02-07T14:24:58.857Z,49.97
2018-02-07T14:27:26.992Z,51.40
2018-02-07T14:29:54.507Z,49.27
2018-02-07T14:32:22.023Z,49.37
2018-02-07T14:34:50.342Z,50.20
2018-02-07T14:37:17.888Z,52.53
2018-02-07T14:39:45.406Z,48.73
2018-02-07T14:42:13.716Z,50.10
2018-02-07T14:44:41.233Z,51.87
2018-02-07T14:47:08.836Z,57.23
2018-02-07T14:49:36.399Z,51.43
2018-02-07T14:52:04.441Z,55.90
2018-02-07T14:54:33.249Z,55.60
2018-02-07T14:57:00.764Z,54.53
2018-02-07T14:59:28.283Z,47.83
2018-02-07T15:01:55.826Z,52.13
2018-02-07T15:04:23.784Z,61.17
2018-02-07T15:06:51.732Z,56.93
2018-02-07T15:09:20.460Z,55.13
2018-02-07T15:11:48.011Z,54.33
2018-02-07T15:14:15.532Z,57.47
2018-02-07T15:16:43.819Z,55.37
2018-02-07T15:19:12.915Z,53.17
2018-02-07T15:21:41.211Z,58.53
2018-02-07T15:24:09.113Z,55.07
2018-02-07T15:26:37.048Z,51.87
2018-02-07T15:29:04.623Z,55.50
2018-02-07T15:31:34.613Z,56.73
2018-02-07T15:34:02.132Z,58.93
2018-02-07T15:36:30.043Z,58.43
2018-02-07T15:38:58.084Z,53.63
2018-02-07T15:41:26.393Z,52.50
2018-02-07T15:43:54.464Z,56.57
2018-02-07T15:46:22.301Z,53.67
2018-02-07T15:48:50.584Z,56.70
2018-02-07T15:51:18.443Z,58.63
2018-02-07T15:53:47.022Z,56.93
2018-02-07T15:56:15.733Z,57.53
2018-02-07T15:58:43.462Z,52.57
2018-02-07T16:01:11.947Z,53.77
2018-02-07T16:03:40.557Z,57.13
2018-02-07T16:06:08.118Z,55.10
2018-02-07T16:08:35.684Z,57.03
2018-02-07T16:11:03.512Z,56.40
2018-02-07T16:13:31.813Z,53.33
2018-02-07T16:15:59.340Z,54.97
2018-02-07T16:18:27.648Z,57.57
2018-02-07T16:20:55.493Z,57.67
2018-02-07T16:23:23.772Z,60.77
2018-02-07T16:25:52.069Z,64.93
2018-02-07T16:28:19.913Z,58.03
2018-02-07T16:30:49.009Z,62.50
2018-02-07T16:33:17.301Z,54.53
2018-02-07T16:35:45.425Z,54.90
2018-02-07T16:38:14.424Z,58.47
2018-02-07T16:40:42.036Z,58.37
2018-02-07T16:43:09.593Z,57.37
2018-02-07T16:45:37.660Z,53.73
2018-02-07T16:48:05.397Z,49.57
2018-02-07T16:50:33.683Z,63.97
2018-02-07T16:53:01.623Z,63.43
2018-02-07T16:55:29.940Z,66.30
2018-02-07T16:57:57.923Z,62.80
2018-02-07T17:00:25.441Z,61.80
2018-02-07T17:02:53.744Z,66.90
2018-02-07T17:05:21.972Z,62.63
2018-02-07T17:07:51.916Z,67.63
2018-02-07T17:10:19.445Z,64.77
2018-02-07T17:12:49.100Z,62.40
2018-02-07T17:15:16.616Z,62.50
2018-02-07T17:17:44.945Z,81.23
2018-02-07T17:20:12.488Z,80.07
2018-02-07T17:22:40.007Z,73.10
2018-02-07T17:25:08.940Z,64.83
2018-02-07T17:27:36.475Z,97.87
2018-02-07T17:30:07.128Z,82.23
2018-02-07T17:32:34.650Z,79.53
2018-02-07T17:35:03.523Z,71.03
2018-02-07T17:37:32.264Z,102.80
2018-02-07T17:39:59.824Z,120.50
2018-02-07T17:42:27.356Z,101.70
2018-02-07T17:44:58.084Z,94.27
2018-02-07T17:47:26.401Z,90.10
2018-02-07T17:49:53.922Z,81.30
2018-02-07T17:52:22.201Z,73.97
2018-02-07T17:54:49.723Z,84.10
2018-02-07T17:57:17.235Z,90.67
2018-02-07T17:59:44.802Z,81.47
2018-02-07T18:02:12.360Z,109.33
2018-02-07T18:04:40.292Z,146.20
2018-02-07T18:07:08.760Z,121.93
2018-02-07T18:09:37.459Z,116.27
2018-02-07T18:12:08.288Z,78.00
2018-02-07T18:14:37.256Z,80.87
2018-02-07T18:17:05.435Z,76.27
2018-02-07T18:19:34.478Z,70.30
2018-02-07T18:22:02.221Z,73.97
2018-02-07T18:24:30.694Z,70.77
2018-02-07T18:26:59.780Z,69.73
2018-02-07T18:29:28.080Z,64.50
2018-02-07T18:31:56.326Z,72.43
2018-02-07T18:34:24.619Z,66.43
2018-02-07T18:36:52.907Z,65.03
2018-02-07T18:39:26.951Z,61.43
2018-02-07T18:41:54.939Z,63.17
2018-02-07T18:44:23.216Z,58.50
2018-02-07T18:46:50.904Z,64.70
2018-02-07T18:49:19.215Z,62.97
2018-02-07T18:51:46.770Z,71.43
2018-02-07T18:54:14.306Z,68.07
2018-02-07T18:56:42.606Z,72.43
2018-02-07T18:59:10.376Z,74.20
2018-02-07T19:01:38.209Z,74.70
2018-02-07T19:04:05.743Z,75.40
2018-02-07T19:06:35.208Z,73.73
2018-02-07T19:09:03.143Z,73.13
2018-02-07T19:11:31.225Z,76.77
2018-02-07T19:14:05.752Z,72.47
2018-02-07T19:16:33.280Z,79.93
2018-02-07T19:19:02.241Z,76.13
2018-02-07T19:21:29.771Z,78.70
2018-02-07T19:23:57.317Z,79.57
2018-02-07T19:26:25.404Z,79.80
2018-02-07T19:28:53.820Z,80.00
2018-02-07T19:31:22.452Z,82.27
2018-02-07T19:33:50.777Z,78.33
2018-02-07T19:36:19.419Z,79.73
2018-02-07T19:38:46.937Z,79.07
2018-02-07T19:41:15.248Z,82.00
2018-02-07T19:43:43.279Z,81.87
2018-02-07T19:46:12.017Z,81.83
2018-02-07T19:48:39.844Z,83.20
2018-02-07T19:51:08.656Z,87.63
2018-02-07T19:53:36.227Z,90.23
2018-02-07T19:56:03.746Z,89.93
2018-02-07T19:58:32.028Z,90.80
2018-02-07T20:01:00.312Z,86.67
2018-02-07T20:03:28.285Z,92.20
2018-02-07T20:05:55.816Z,90.87
2018-02-07T20:08:24.118Z,91.37
2018-02-07T20:10:51.635Z,94.13
2018-02-07T20:13:20.664Z,94.73
2018-02-07T20:15:48.179Z,93.73
2018-02-07T20:18:15.789Z,96.93
2018-02-07T20:20:43.308Z,99.13
2018-02-07T20:23:11.960Z,104.30
2018-02-07T20:25:40.063Z,97.03
2018-02-07T20:28:08.359Z,95.03
2018-02-07T20:30:36.642Z,95.60
2018-02-07T20:33:04.772Z,100.90
2018-02-07T20:35:32.293Z,93.30
2018-02-07T20:37:59.845Z,97.50
2018-02-07T20:40:27.369Z,99.97
2018-02-07T20:42:55.678Z,99.90
2018-02-07T20:45:23.199Z,91.20
2018-02-07T20:47:52.334Z,86.80
2018-02-07T20:50:19.861Z,86.97
2018-02-07T20:52:48.143Z,85.53
2018-02-07T20:55:16.988Z,93.30
2018-02-07T20:57:45.307Z,101.67
2018-02-07T21:00:13.591Z,102.93
2018-02-07T21:02:41.116Z,97.27
2018-02-07T21:05:10.924Z,98.03
2018-02-07T21:07:39.218Z,101.37
2018-02-07T21:10:08.204Z,110.53
2018-02-07T21:12:39.044Z,103.30
2018-02-07T21:15:07.355Z,105.20
2018-02-07T21:17:35.416Z,101.90
2018-02-07T21:20:03.144Z,108.83
2018-02-07T21:22:31.856Z,109.67
2018-02-07T21:24:59.592Z,105.40
2018-02-07T21:27:34.383Z,96.03
2018-02-07T21:30:01.907Z,102.03
2018-02-07T21:32:29.888Z,103.33
2018-02-07T21:34:58.738Z,102.33
2018-02-07T21:37:27.059Z,102.47
2018-02-07T21:39:55.168Z,103.77
2018-02-07T21:42:23.416Z,106.53
2018-02-07T21:44:50.940Z,100.80
2018-02-07T21:47:19.659Z,107.27
2018-02-07T21:49:47.770Z,107.43
2018-02-07T21:52:16.396Z,118.47
2018-02-07T21:55:00.688Z,114.70
2018-02-07T21:57:28.623Z,112.10
2018-02-07T21:59:56.816Z,103.63
2018-02-07T22:02:24.352Z,97.13
2018-02-07T22:04:53.195Z,100.70
2018-02-07T22:07:22.144Z,96.90
2018-02-07T22:09:50.099Z,100.27
2018-02-07T22:12:17.623Z,101.17
2018-02-07T22:14:46.324Z,90.17
2018-02-07T22:17:13.849Z,104.10
2018-02-07T22:19:41.736Z,94.17
2018-02-07T22:22:10.228Z,98.40
2018-02-07T22:24:37.807Z,107.83
2018-02-07T22:27:05.363Z,105.73
2018-02-07T22:29:34.523Z,105.30
2018-02-07T22:32:03.018Z,115.67
2018-02-07T22:34:31.321Z,123.87
2018-02-07T22:36:59.094Z,122.43
2018-02-07T22:39:27.712Z,109.50
2018-02-07T22:41:55.643Z,106.60
2018-02-07T22:44:23.368Z,114.27
2018-02-07T22:46:53.664Z,119.23
2018-02-07T22:49:21.893Z,130.70
2018-02-07T22:51:49.840Z,125.57
2018-02-07T22:54:19.284Z,130.40
2018-02-07T22:56:46.820Z,146.13
2018-02-07T22:59:15.059Z,145.70
2018-02-07T23:01:43.380Z,153.03
2018-02-07T23:04:10.932Z,138.43
2018-02-07T23:06:38.583Z,135.73
2018-02-07T23:09:06.547Z,119.03
2018-02-07T23:11:34.500Z,132.97
2018-02-07T23:14:03.110Z,130.60
2018-02-07T23:16:30.671Z,136.07
2018-02-07T23:18:58.884Z,130.13
2018-02-07T23:21:28.220Z,124.90
2018-02-07T23:23:56.509Z,139.87
2018-02-07T23:26:24.036Z,138.20
2018-02-07T23:28:52.927Z,127.50
2018-02-07T23:31:21.779Z,120.97
2018-02-07T23:33:49.324Z,118.97
2018-02-07T23:36:16.916Z,106.87
2018-02-07T23:38:44.435Z,108.10
2018-02-07T23:41:14.448Z,104.70
2018-02-07T23:43:42.878Z,102.70
2018-02-07T23:46:11.380Z,99.07
2018-02-07T23:48:39.679Z,105.10
2018-02-07T23:51:07.197Z,99.60
2018-02-07T23:53:36.296Z,97.07
2018-02-07T23:56:04.587Z,91.60
2018-02-07T23:58:32.876Z,96.23
